createdAt,value
2017-11-25T00:01:58.779Z,96002.23
2017-11-25T00:04:26.336Z,96003.27
2017-11-25T00:06:53.914Z,96012.75
2017-11-25T00:09:21.675Z,96007.61
2017-11-25T00:11:49.232Z,96007.00
2017-11-25T00:14:16.851Z,95997.61
2017-11-25T00:16:44.421Z,95993.98
2017-11-25T00:19:12.024Z,95997.94
2017-11-25T00:21:39.585Z,95999.99
2017-11-25T00:24:07.179Z,95997.74
2017-11-25T00:26:34.744Z,95998.13
2017-11-25T00:29:02.337Z,95999.83
2017-11-25T00:31:29.987Z,96006.22
2017-11-25T00:33:57.533Z,95997.94
2017-11-25T00:36:25.125Z,95992.73
2017-11-25T00:38:52.711Z,95982.05
2017-11-25T00:41:20.269Z,95969.66
2017-11-25T00:43:47.858Z,95960.06
2017-11-25T00:46:15.424Z,95945.58
2017-11-25T00:48:43.021Z,95945.23
2017-11-25T00:51:15.599Z,95945.16
2017-11-25T00:53:43.175Z,95942.62
2017-11-25T00:56:10.729Z,95945.19
2017-11-25T00:58:38.328Z,95934.64
2017-11-25T01:01:05.895Z,95938.95
2017-11-25T01:03:33.467Z,95941.31
2017-11-25T01:06:01.067Z,95940.64
2017-11-25T01:08:28.633Z,95950.27
2017-11-25T01:10:56.192Z,95951.41
2017-11-25T01:13:23.838Z,95956.14
2017-11-25T01:15:51.414Z,95957.75
2017-11-25T01:18:18.974Z,95957.98
2017-11-25T01:20:46.592Z,95961.49
2017-11-25T01:23:14.141Z,95953.63
2017-11-25T01:25:41.741Z,95943.27
2017-11-25T01:28:09.422Z,95939.80
2017-11-25T01:30:37.020Z,95939.99
2017-11-25T01:33:04.701Z,95940.66
2017-11-25T01:35:32.344Z,95941.63
2017-11-25T01:37:59.960Z,95925.33
2017-11-25T01:40:27.537Z,95924.08
2017-11-25T01:42:55.127Z,95910.30
2017-11-25T01:45:23.006Z,95902.72
2017-11-25T01:47:50.591Z,95898.59
2017-11-25T01:50:18.224Z,95897.27
2017-11-25T01:52:45.786Z,95900.39
2017-11-25T01:55:13.511Z,95900.03
2017-11-25T01:57:41.144Z,95898.03
2017-11-25T02:00:08.819Z,95891.83
2017-11-25T02:02:36.379Z,95892.52
2017-11-25T02:05:04.025Z,95887.05
2017-11-25T02:07:31.671Z,95886.09
2017-11-25T02:09:59.263Z,95873.52
2017-11-25T02:12:26.845Z,95866.56
2017-11-25T02:14:54.414Z,95859.98
2017-11-25T02:17:22.000Z,95858.89
2017-11-25T02:19:49.635Z,95848.80
2017-11-25T02:22:17.224Z,95855.20
2017-11-25T02:24:44.838Z,95853.60
2017-11-25T02:27:12.481Z,95848.33
2017-11-25T02:29:40.064Z,95847.04
2017-11-25T02:32:07.657Z,95853.61
2017-11-25T02:34:35.262Z,95860.09
2017-11-25T02:37:02.835Z,95859.59
2017-11-25T02:39:30.402Z,95858.02
2017-11-25T02:41:58.017Z,95853.95
2017-11-25T02:44:25.595Z,95850.23
2017-11-25T02:46:53.169Z,95836.92
2017-11-25T02:49:20.835Z,95838.09
2017-11-25T02:51:48.443Z,95841.93
2017-11-25T02:54:16.431Z,95842.06
2017-11-25T02:56:44.486Z,95828.58
2017-11-25T02:59:12.481Z,95826.14
2017-11-25T03:01:40.066Z,95816.45
2017-11-25T03:04:07.690Z,95819.19
2017-11-25T03:06:35.298Z,95817.94
2017-11-25T03:09:02.969Z,95820.68
2017-11-25T03:11:30.600Z,95819.58
2017-11-25T03:13:58.147Z,95822.88
2017-11-25T03:16:25.723Z,95814.97
2017-11-25T03:18:53.331Z,95806.86
2017-11-25T03:21:20.878Z,95815.74
2017-11-25T03:23:48.452Z,95814.44
2017-11-25T03:26:16.035Z,95814.55
2017-11-25T03:28:43.606Z,95803.27
2017-11-25T03:31:11.520Z,95798.66
2017-11-25T03:33:39.223Z,95794.66
2017-11-25T03:36:06.906Z,95784.84
2017-11-25T03:38:35.750Z,95776.26
2017-11-25T03:41:03.370Z,95776.72
2017-11-25T03:43:31.000Z,95779.63
2017-11-25T03:48:49.468Z,95777.17
2017-11-25T03:51:17.024Z,95771.77
2017-11-25T03:53:44.593Z,95763.18
2017-11-25T03:56:12.175Z,95756.80
2017-11-25T03:58:39.739Z,95744.43
2017-11-25T04:01:07.324Z,95743.08
2017-11-25T04:03:34.954Z,95736.51
2017-11-25T04:06:02.563Z,95725.84
2017-11-25T04:08:30.109Z,95723.32
2017-11-25T04:10:57.683Z,95729.22
2017-11-25T04:13:25.231Z,95725.33
2017-11-25T04:15:52.808Z,95723.14
2017-11-25T04:18:20.559Z,95707.75
2017-11-25T04:20:48.140Z,95707.80
2017-11-25T04:23:15.795Z,95701.59
2017-11-25T04:25:43.407Z,95704.63
2017-11-25T04:28:11.060Z,95711.53
2017-11-25T04:30:38.656Z,95716.65
2017-11-25T04:33:06.327Z,95712.03
2017-11-25T04:35:34.654Z,95707.07
2017-11-25T04:38:02.204Z,95700.49
2017-11-25T04:40:29.822Z,95695.84
2017-11-25T04:42:57.400Z,95697.02
2017-11-25T04:45:24.996Z,95680.37
2017-11-25T04:47:52.609Z,95680.91
2017-11-25T04:50:20.201Z,95684.87
2017-11-25T04:52:47.813Z,95677.20
2017-11-25T04:55:15.429Z,95678.89
2017-11-25T04:57:43.012Z,95666.41
2017-11-25T05:00:10.616Z,95674.06
2017-11-25T05:02:38.268Z,95676.17
2017-11-25T05:05:06.071Z,95667.81
2017-11-25T05:07:33.629Z,95661.56
2017-11-25T05:10:01.203Z,95654.17
2017-11-25T05:12:28.825Z,95652.05
2017-11-25T05:14:56.415Z,95655.94
2017-11-25T05:17:23.978Z,95664.38
2017-11-25T05:19:51.566Z,95661.39
2017-11-25T05:22:20.176Z,95658.40
2017-11-25T05:24:47.741Z,95658.02
2017-11-25T05:27:15.329Z,95655.02
2017-11-25T05:29:42.936Z,95653.66
2017-11-25T05:32:10.562Z,95651.14
2017-11-25T05:34:38.195Z,95647.77
2017-11-25T05:37:05.753Z,95646.81
2017-11-25T05:39:33.424Z,95640.32
2017-11-25T05:42:01.036Z,95638.39
2017-11-25T05:44:28.607Z,95638.91
2017-11-25T05:46:56.179Z,95636.59
2017-11-25T05:49:23.791Z,95633.30
2017-11-25T05:51:51.340Z,95635.59
2017-11-25T05:54:18.913Z,95626.19
2017-11-25T05:56:46.486Z,95618.58
2017-11-25T05:59:14.019Z,95612.84
2017-11-25T06:01:41.576Z,95611.50
2017-11-25T06:04:09.213Z,95602.89
2017-11-25T06:06:36.811Z,95600.50
2017-11-25T06:09:04.995Z,95602.16
2017-11-25T06:11:32.919Z,95604.81
2017-11-25T06:14:00.611Z,95593.95
2017-11-25T06:16:28.253Z,95596.30
2017-11-25T06:18:55.812Z,95594.17
2017-11-25T06:21:23.400Z,95589.87
2017-11-25T06:23:50.977Z,95588.20
2017-11-25T06:26:18.561Z,95590.27
2017-11-25T06:28:46.199Z,95576.86
2017-11-25T06:31:16.462Z,95558.92
2017-11-25T06:33:44.099Z,95559.84
2017-11-25T06:36:11.673Z,95564.06
2017-11-25T06:38:39.242Z,95562.97
2017-11-25T06:41:06.812Z,95575.83
2017-11-25T06:43:34.967Z,95580.01
2017-11-25T06:46:02.533Z,95577.66
2017-11-25T06:48:30.095Z,95582.36
2017-11-25T06:50:57.684Z,95580.03
2017-11-25T06:53:25.553Z,95572.87
2017-11-25T06:55:53.473Z,95563.55
2017-11-25T06:58:21.056Z,95559.89
2017-11-25T07:00:48.639Z,95543.55
2017-11-25T07:03:16.195Z,95540.14
2017-11-25T07:05:43.755Z,95525.03
2017-11-25T07:08:11.347Z,95519.30
2017-11-25T07:10:38.939Z,95528.87
2017-11-25T07:13:06.586Z,95524.98
2017-11-25T07:15:34.162Z,95517.06
2017-11-25T07:18:03.920Z,95513.36
2017-11-25T07:20:31.496Z,95512.27
2017-11-25T07:22:59.067Z,95507.62
2017-11-25T07:25:26.633Z,95498.50
2017-11-25T07:27:54.194Z,95493.13
2017-11-25T07:30:21.760Z,95484.53
2017-11-25T07:32:49.342Z,95479.45
2017-11-25T07:35:16.900Z,95480.46
2017-11-25T07:37:44.474Z,95475.50
2017-11-25T07:40:12.043Z,95468.30
2017-11-25T07:42:39.771Z,95457.75
2017-11-25T07:45:07.412Z,95446.70
2017-11-25T07:47:34.973Z,95442.50
2017-11-25T07:50:02.745Z,95433.55
2017-11-25T07:52:30.360Z,95436.45
2017-11-25T07:54:59.662Z,95432.05
2017-11-25T07:57:27.449Z,95424.33
2017-11-25T07:59:55.034Z,95419.38
2017-11-25T08:02:22.714Z,95419.66
2017-11-25T08:04:50.264Z,95415.64
2017-11-25T08:07:17.866Z,95403.55
2017-11-25T08:09:45.425Z,95388.45
2017-11-25T08:12:12.986Z,95377.59
2017-11-25T08:14:40.586Z,95371.50
2017-11-25T08:17:08.258Z,95369.46
2017-11-25T08:19:36.678Z,95374.58
2017-11-25T08:22:04.260Z,95366.73
2017-11-25T08:24:31.815Z,95352.08
2017-11-25T08:26:59.370Z,95333.97
2017-11-25T08:29:26.957Z,95319.96
2017-11-25T08:31:54.530Z,95307.11
2017-11-25T08:34:22.259Z,95308.33
2017-11-25T08:36:49.850Z,95301.15
2017-11-25T08:39:17.418Z,95284.80
2017-11-25T08:41:45.003Z,95278.41
2017-11-25T08:44:12.574Z,95283.23
2017-11-25T08:46:40.134Z,95282.52
2017-11-25T08:49:07.723Z,95272.41
2017-11-25T08:51:35.353Z,95260.19
2017-11-25T08:54:03.068Z,95257.55
2017-11-25T08:56:30.747Z,95248.70
2017-11-25T08:58:58.353Z,95246.56
2017-11-25T09:01:25.915Z,95241.73
2017-11-25T09:03:53.457Z,95228.22
2017-11-25T09:06:21.059Z,95225.67
2017-11-25T09:08:48.609Z,95231.33
2017-11-25T09:11:16.351Z,95234.47
2017-11-25T09:13:43.930Z,95235.67
2017-11-25T09:16:11.502Z,95234.29
2017-11-25T09:18:39.098Z,95232.26
2017-11-25T09:21:06.776Z,95234.22
2017-11-25T09:23:34.346Z,95241.98
2017-11-25T09:26:01.896Z,95234.42
2017-11-25T09:28:29.554Z,95208.53
2017-11-25T09:30:57.120Z,95191.20
2017-11-25T09:33:24.699Z,95182.35
2017-11-25T09:35:52.275Z,95182.85
2017-11-25T09:38:19.915Z,95184.20
2017-11-25T09:40:47.461Z,95171.66
2017-11-25T09:43:15.054Z,95167.38
2017-11-25T09:45:42.641Z,95157.53
2017-11-25T09:48:10.256Z,95142.31
2017-11-25T09:50:37.854Z,95144.02
2017-11-25T09:53:05.572Z,95133.44
2017-11-25T09:55:33.150Z,95124.31
2017-11-25T09:58:00.788Z,95122.94
2017-11-25T10:00:28.510Z,95126.86
2017-11-25T10:02:56.075Z,95125.48
2017-11-25T10:05:23.656Z,95120.97
2017-11-25T10:07:51.216Z,95112.01
2017-11-25T10:10:18.811Z,95098.68
2017-11-25T10:12:46.427Z,95086.19
2017-11-25T10:15:14.006Z,95088.66
2017-11-25T10:17:41.576Z,95086.13
2017-11-25T10:20:09.158Z,95082.59
2017-11-25T10:22:36.778Z,95075.95
2017-11-25T10:25:04.333Z,95065.23
2017-11-25T10:27:31.914Z,95053.64
2017-11-25T10:29:59.494Z,95052.56
2017-11-25T10:32:27.042Z,95043.73
2017-11-25T10:34:54.682Z,95042.59
2017-11-25T10:37:23.583Z,95041.32
2017-11-25T10:39:51.195Z,95034.56
2017-11-25T10:42:18.809Z,95038.91
2017-11-25T10:44:46.458Z,95040.50
2017-11-25T10:47:14.095Z,95035.48
2017-11-25T10:49:41.716Z,95038.11
2017-11-25T10:52:09.490Z,95030.45
2017-11-25T10:54:37.056Z,95036.53
2017-11-25T10:57:04.735Z,95030.59
2017-11-25T10:59:33.250Z,95024.63
2017-11-25T11:02:00.820Z,95021.08
2017-11-25T11:04:28.432Z,95011.55
2017-11-25T11:06:55.973Z,95025.84
2017-11-25T11:09:23.981Z,95017.58
2017-11-25T11:11:51.534Z,95015.63
2017-11-25T11:14:19.143Z,95013.54
2017-11-25T11:16:46.730Z,95015.23
2017-11-25T11:19:14.425Z,95026.81
2017-11-25T11:21:42.000Z,95015.69
2017-11-25T11:24:09.576Z,95016.25
2017-11-25T11:26:37.115Z,95017.58
2017-11-25T11:29:04.690Z,95023.63
2017-11-25T11:31:32.286Z,95019.67
2017-11-25T11:33:59.836Z,95029.21
2017-11-25T11:36:27.441Z,95019.20
2017-11-25T11:38:55.082Z,95018.39
2017-11-25T11:41:22.639Z,95026.66
2017-11-25T11:43:50.177Z,95024.23
2017-11-25T11:46:17.758Z,95024.17
2017-11-25T11:48:45.364Z,95015.90
2017-11-25T11:51:13.103Z,95015.36
2017-11-25T11:53:40.677Z,95019.19
2017-11-25T11:56:08.313Z,95015.55
2017-11-25T11:58:35.870Z,95018.42
2017-11-25T12:01:03.513Z,95013.02
2017-11-25T12:03:31.183Z,95020.70
2017-11-25T12:05:58.772Z,95025.30
2017-11-25T12:08:26.359Z,95021.24
2017-11-25T12:10:53.975Z,95022.66
2017-11-25T12:13:21.802Z,95028.48
2017-11-25T12:15:49.368Z,95022.95
2017-11-25T12:18:16.972Z,95021.34
2017-11-25T12:20:44.576Z,95028.38
2017-11-25T12:23:12.195Z,95027.34
2017-11-25T12:25:39.940Z,95023.03
2017-11-25T12:28:07.528Z,95024.87
2017-11-25T12:30:35.098Z,95018.23
2017-11-25T12:33:02.710Z,95034.10
2017-11-25T12:35:30.331Z,95031.50
2017-11-25T12:37:57.892Z,95034.46
2017-11-25T12:40:25.512Z,95036.85
2017-11-25T12:42:53.115Z,95035.56
2017-11-25T12:45:20.679Z,95042.66
2017-11-25T12:47:48.308Z,95043.30
2017-11-25T12:50:15.888Z,95054.13
2017-11-25T12:52:43.489Z,95060.70
2017-11-25T12:55:11.687Z,95066.23
2017-11-25T12:57:39.282Z,95078.95
2017-11-25T13:00:07.043Z,95085.94
2017-11-25T13:02:34.681Z,95098.36
2017-11-25T13:05:02.298Z,95115.71
2017-11-25T13:07:29.896Z,95117.78
2017-11-25T13:09:57.501Z,95129.82
2017-11-25T13:12:25.292Z,95165.97
2017-11-25T13:14:52.891Z,95178.09
2017-11-25T13:17:20.454Z,95170.65
2017-11-25T13:19:48.026Z,95169.22
2017-11-25T13:22:15.636Z,95169.67
2017-11-25T13:24:43.251Z,95174.98
2017-11-25T13:27:11.037Z,95194.87
2017-11-25T13:29:38.648Z,95207.38
2017-11-25T13:32:06.216Z,95218.30
2017-11-25T13:34:33.811Z,95236.22
2017-11-25T13:37:01.418Z,95221.13
2017-11-25T13:39:29.018Z,95233.88
2017-11-25T13:41:56.600Z,95240.31
2017-11-25T13:44:24.199Z,95248.23
2017-11-25T13:46:51.830Z,95260.02
2017-11-25T13:49:19.378Z,95253.56
2017-11-25T13:51:46.956Z,95256.12
2017-11-25T13:54:14.508Z,95270.94
2017-11-25T13:56:42.094Z,95280.77
2017-11-25T13:59:09.684Z,95285.83
2017-11-25T14:01:37.261Z,95292.73
2017-11-25T14:04:04.851Z,95295.89
2017-11-25T14:06:32.508Z,95309.09
2017-11-25T14:09:00.199Z,95322.33
2017-11-25T14:11:27.996Z,95312.31
2017-11-25T14:13:55.586Z,95315.73
2017-11-25T14:16:23.946Z,95320.86
2017-11-25T14:18:51.510Z,95318.24
2017-11-25T14:21:19.087Z,95329.49
2017-11-25T14:23:46.664Z,95324.38
2017-11-25T14:26:14.235Z,95326.91
2017-11-25T14:28:41.823Z,95337.83
2017-11-25T14:31:09.461Z,95356.09
2017-11-25T14:33:37.355Z,95351.91
2017-11-25T14:36:05.263Z,95326.47
2017-11-25T14:38:32.814Z,95366.55
2017-11-25T14:41:00.388Z,95373.48
2017-11-25T14:43:28.022Z,95362.29
2017-11-25T14:45:55.609Z,95388.81
2017-11-25T14:48:23.913Z,95409.76
2017-11-25T14:50:51.497Z,95425.78
2017-11-25T14:53:19.066Z,95453.58
2017-11-25T14:55:46.640Z,95444.02
2017-11-25T14:58:14.231Z,95448.43
2017-11-25T15:00:41.816Z,95446.57
2017-11-25T15:03:09.451Z,95449.50
2017-11-25T15:05:37.428Z,95446.47
2017-11-25T15:08:04.977Z,95446.59
2017-11-25T15:10:32.797Z,95450.88
2017-11-25T15:13:00.419Z,95466.77
2017-11-25T15:15:27.990Z,95488.09
2017-11-25T15:17:55.586Z,95487.03
2017-11-25T15:20:23.160Z,95490.43
2017-11-25T15:22:50.933Z,95504.33
2017-11-25T15:25:19.010Z,95515.09
2017-11-25T15:27:46.598Z,95519.31
2017-11-25T15:30:14.235Z,95505.73
2017-11-25T15:32:41.833Z,95514.92
2017-11-25T15:35:09.429Z,95518.84
2017-11-25T15:37:37.058Z,95512.35
2017-11-25T15:40:04.652Z,95506.86
2017-11-25T15:42:32.239Z,95513.14
2017-11-25T15:44:59.869Z,95510.18
2017-11-25T15:47:27.435Z,95513.33
2017-11-25T15:49:55.030Z,95514.91
2017-11-25T15:52:22.598Z,95519.13
2017-11-25T15:54:50.169Z,95520.15
2017-11-25T15:57:17.799Z,95512.99
2017-11-25T15:59:45.728Z,95520.03
2017-11-25T16:02:13.266Z,95520.49
2017-11-25T16:04:40.823Z,95506.83
2017-11-25T16:07:08.452Z,95519.92
2017-11-25T16:09:36.293Z,95528.16
2017-11-25T16:12:03.889Z,95535.01
2017-11-25T16:14:31.483Z,95551.92
2017-11-25T16:16:59.105Z,95549.73
2017-11-25T16:19:26.690Z,95564.43
2017-11-25T16:21:54.291Z,95564.63
2017-11-25T16:24:22.522Z,95576.59
2017-11-25T16:26:50.097Z,95579.08
2017-11-25T16:29:17.710Z,95586.17
2017-11-25T16:31:45.290Z,95604.58
2017-11-25T16:34:12.859Z,95604.53
2017-11-25T16:36:40.477Z,95612.70
2017-11-25T16:39:08.117Z,95612.32
2017-11-25T16:41:35.693Z,95615.35
2017-11-25T16:44:03.295Z,95613.98
2017-11-25T16:46:30.907Z,95611.05
2017-11-25T16:48:58.513Z,95627.77
2017-11-25T16:51:26.103Z,95632.80
2017-11-25T16:53:53.657Z,95637.38
2017-11-25T16:56:21.250Z,95627.77
2017-11-25T16:58:48.888Z,95630.61
2017-11-25T17:01:16.446Z,95643.80
2017-11-25T17:03:44.005Z,95640.30
2017-11-25T17:06:11.582Z,95653.31
2017-11-25T17:08:39.176Z,95657.33
2017-11-25T17:11:07.369Z,95651.69
2017-11-25T17:13:36.204Z,95662.72
2017-11-25T17:16:03.794Z,95665.39
2017-11-25T17:18:31.376Z,95664.23
2017-11-25T17:20:58.968Z,95671.01
2017-11-25T17:23:26.666Z,95673.55
2017-11-25T17:25:54.289Z,95685.09
2017-11-25T17:28:21.897Z,95694.98
2017-11-25T17:30:49.619Z,95688.29
2017-11-25T17:33:17.187Z,95684.16
2017-11-25T17:35:44.776Z,95701.66
2017-11-25T17:38:12.367Z,95712.55
2017-11-25T17:40:39.916Z,95708.63
2017-11-25T17:43:07.610Z,95712.70
2017-11-25T17:45:35.177Z,95711.56
2017-11-25T17:48:02.745Z,95719.00
2017-11-25T17:50:30.678Z,95724.39
2017-11-25T17:52:58.238Z,95727.72
2017-11-25T17:55:25.796Z,95723.91
2017-11-25T17:57:53.366Z,95721.45
2017-11-25T18:00:20.923Z,95717.34
2017-11-25T18:02:48.467Z,95726.09
2017-11-25T18:05:16.056Z,95719.36
2017-11-25T18:07:43.594Z,95724.66
2017-11-25T18:10:11.139Z,95730.24
2017-11-25T18:12:38.711Z,95735.42
2017-11-25T18:15:06.446Z,95743.88
2017-11-25T18:17:34.519Z,95744.80
2017-11-25T18:20:02.155Z,95743.53
2017-11-25T18:22:29.719Z,95751.53
2017-11-25T18:24:57.317Z,95754.67
2017-11-25T18:27:25.003Z,95764.95
2017-11-25T18:29:52.634Z,95750.71
2017-11-25T18:32:20.693Z,95749.80
2017-11-25T18:34:48.278Z,95752.07
2017-11-25T18:37:15.871Z,95760.83
2017-11-25T18:39:43.436Z,95768.38
2017-11-25T18:42:11.022Z,95770.03
2017-11-25T18:44:38.734Z,95774.57
2017-11-25T18:47:06.308Z,95771.27
2017-11-25T18:49:33.884Z,95771.61
2017-11-25T18:52:01.545Z,95769.89
2017-11-25T18:54:29.108Z,95774.02
2017-11-25T18:56:56.682Z,95768.00
2017-11-25T18:59:24.289Z,95766.89
2017-11-25T19:01:51.872Z,95775.39
2017-11-25T19:04:19.461Z,95776.05
2017-11-25T19:06:47.731Z,95787.14
2017-11-25T19:09:15.283Z,95776.05
2017-11-25T19:11:42.857Z,95788.35
2017-11-25T19:14:10.432Z,95792.13
2017-11-25T19:16:38.025Z,95792.48
2017-11-25T19:19:07.283Z,95790.48
2017-11-25T19:21:35.406Z,95793.34
2017-11-25T19:24:02.988Z,95790.28
2017-11-25T19:26:30.551Z,95794.23
2017-11-25T19:28:58.125Z,95788.56
2017-11-25T19:31:25.715Z,95785.81
2017-11-25T19:33:53.303Z,95781.62
2017-11-25T19:36:20.961Z,95772.13
2017-11-25T19:38:48.545Z,95785.30
2017-11-25T19:41:16.141Z,95786.32
2017-11-25T19:43:43.719Z,95780.31
2017-11-25T19:46:11.302Z,95785.87
2017-11-25T19:48:38.878Z,95792.38
2017-11-25T19:51:06.507Z,95801.34
2017-11-25T19:53:34.109Z,95798.73
2017-11-25T19:56:01.666Z,95804.54
2017-11-25T19:58:29.218Z,95808.50
2017-11-25T20:00:56.796Z,95800.21
2017-11-25T20:03:24.343Z,95801.73
2017-11-25T20:05:51.904Z,95804.78
2017-11-25T20:08:19.489Z,95805.30
2017-11-25T20:10:47.116Z,95806.27
2017-11-25T20:13:14.788Z,95810.39
2017-11-25T20:15:42.408Z,95807.36
2017-11-25T20:18:10.084Z,95813.76
2017-11-25T20:20:37.649Z,95812.55
2017-11-25T20:23:05.440Z,95817.13
2017-11-25T20:25:33.026Z,95806.88
2017-11-25T20:28:00.602Z,95815.89
2017-11-25T20:30:28.193Z,95812.73
2017-11-25T20:32:55.754Z,95808.80
2017-11-25T20:35:23.334Z,95815.30
2017-11-25T20:37:50.915Z,95808.47
2017-11-25T20:40:18.503Z,95807.67
2017-11-25T20:42:46.055Z,95802.37
2017-11-25T20:45:13.707Z,95802.42
2017-11-25T20:47:41.352Z,95805.58
2017-11-25T20:50:08.922Z,95811.28
2017-11-25T20:52:36.493Z,95812.14
2017-11-25T20:55:04.081Z,95805.44
2017-11-25T20:57:31.680Z,95815.55
2017-11-25T20:59:59.276Z,95820.59
2017-11-25T21:02:26.822Z,95819.91
2017-11-25T21:04:54.395Z,95823.63
2017-11-25T21:07:21.969Z,95839.16
2017-11-25T21:09:49.542Z,95840.22
2017-11-25T21:12:17.198Z,95832.28
2017-11-25T21:14:44.765Z,95826.23
2017-11-25T21:17:12.479Z,95836.30
2017-11-25T21:19:40.103Z,95837.20
2017-11-25T21:22:07.663Z,95839.67
2017-11-25T21:24:35.217Z,95837.57
2017-11-25T21:27:02.872Z,95843.72
2017-11-25T21:29:30.658Z,95834.59
2017-11-25T21:31:58.215Z,95849.09
2017-11-25T21:34:25.836Z,95853.22
2017-11-25T21:36:55.348Z,95849.98
2017-11-25T21:39:22.900Z,95848.13
2017-11-25T21:41:50.495Z,95855.23
2017-11-25T21:44:18.076Z,95853.00
2017-11-25T21:46:45.676Z,95852.18
2017-11-25T21:49:13.290Z,95847.30
2017-11-25T21:51:40.854Z,95855.27
2017-11-25T21:54:08.397Z,95844.45
2017-11-25T21:56:36.037Z,95845.23
2017-11-25T21:59:03.599Z,95850.80
2017-11-25T22:01:31.160Z,95846.69
2017-11-25T22:03:58.746Z,95853.97
2017-11-25T22:06:26.341Z,95851.91
2017-11-25T22:08:53.945Z,95849.64
2017-11-25T22:11:21.633Z,95852.45
2017-11-25T22:13:49.209Z,95848.68
2017-11-25T22:16:16.773Z,95848.03
2017-11-25T22:18:44.330Z,95854.38
2017-11-25T22:21:12.025Z,95855.24
2017-11-25T22:23:39.664Z,95858.44
2017-11-25T22:26:07.234Z,95873.22
2017-11-25T22:28:34.806Z,95872.42
2017-11-25T22:31:02.368Z,95876.06
2017-11-25T22:33:29.947Z,95878.98
2017-11-25T22:35:57.540Z,95878.34
2017-11-25T22:38:25.113Z,95881.30
2017-11-25T22:40:52.722Z,95874.55
2017-11-25T22:43:20.287Z,95872.45
2017-11-25T22:45:47.862Z,95872.97
2017-11-25T22:48:15.485Z,95874.01
2017-11-25T22:50:43.068Z,95877.27
2017-11-25T22:53:10.626Z,95878.58
2017-11-25T22:55:39.005Z,95872.19
2017-11-25T22:58:06.562Z,95878.06
2017-11-25T23:00:34.154Z,95871.36
2017-11-25T23:03:01.730Z,95873.05
2017-11-25T23:05:29.328Z,95873.16
2017-11-25T23:07:56.873Z,95869.23
2017-11-25T23:10:24.482Z,95864.70
2017-11-25T23:12:52.070Z,95868.61
2017-11-25T23:15:19.617Z,95862.05
2017-11-25T23:17:47.184Z,95868.64
2017-11-25T23:20:14.795Z,95871.91
2017-11-25T23:22:42.360Z,95870.19
2017-11-25T23:25:10.086Z,95870.16
2017-11-25T23:27:40.998Z,95868.61
2017-11-25T23:30:08.545Z,95872.97
2017-11-25T23:32:36.115Z,95876.61
2017-11-25T23:35:03.709Z,95872.73
2017-11-25T23:37:31.300Z,95873.14
2017-11-25T23:39:58.865Z,95871.16
2017-11-25T23:42:26.448Z,95874.23
2017-11-25T23:44:54.001Z,95879.88
2017-11-25T23:47:21.616Z,95885.37
2017-11-25T23:49:49.221Z,95879.02
2017-11-25T23:52:16.762Z,95876.82
2017-11-25T23:54:45.354Z,95879.13
2017-11-25T23:57:12.999Z,95879.88
2017-11-25T23:59:40.577Z,95874.79
